createdAt,value
2023-04-06T00:04:17.956Z,6.41
2023-04-06T00:09:15.251Z,6.69
2023-04-06T00:14:12.201Z,6.41
2023-04-06T00:19:09.369Z,6.20
2023-04-06T00:24:07.417Z,6.64
2023-04-06T00:29:04.368Z,6.46
2023-04-06T00:34:01.207Z,6.54
2023-04-06T00:38:58.261Z,6.38
2023-04-06T00:43:56.114Z,6.32
2023-04-06T00:48:53.146Z,6.08
2023-04-06T00:53:50.103Z,6.39
2023-04-06T00:58:47.448Z,6.18
2023-04-06T01:03:49.309Z,6.35
2023-04-06T01:08:48.058Z,6.30
2023-04-06T01:13:49.979Z,6.13
2023-04-06T01:18:56.573Z,6.49
2023-04-06T01:23:59.134Z,6.66
2023-04-06T01:29:04.325Z,6.46
2023-04-06T01:34:01.502Z,6.84
2023-04-06T01:38:59.368Z,7.06
2023-04-06T01:44:03.585Z,7.13
2023-04-06T01:49:02.355Z,7.28
2023-04-06T01:54:08.285Z,7.32
2023-04-06T01:59:20.556Z,7.23
2023-04-06T02:04:17.785Z,7.04
2023-04-06T02:09:18.172Z,7.41
2023-04-06T02:14:15.512Z,7.43
2023-04-06T02:19:18.842Z,7.05
2023-04-06T02:24:15.856Z,7.54
2023-04-06T02:29:13.710Z,7.30
2023-04-06T02:34:12.488Z,7.20
2023-04-06T02:39:13.344Z,7.56
2023-04-06T02:44:10.429Z,7.57
2023-04-06T02:49:12.513Z,7.45
2023-04-06T02:54:10.435Z,7.63
2023-04-06T02:59:07.632Z,7.66
2023-04-06T03:04:04.827Z,7.42
2023-04-06T03:09:03.469Z,7.49
2023-04-06T03:14:02.530Z,7.73
2023-04-06T03:18:59.707Z,7.66
2023-04-06T03:23:57.004Z,7.69
2023-04-06T03:28:58.077Z,7.69
2023-04-06T03:34:00.261Z,7.67
2023-04-06T03:39:01.763Z,7.37
2023-04-06T03:44:02.363Z,7.69
2023-04-06T03:49:01.194Z,7.90
2023-04-06T03:53:59.753Z,7.91
2023-04-06T03:58:57.057Z,7.73
2023-04-06T04:03:55.431Z,7.95
2023-04-06T04:08:52.466Z,7.75
2023-04-06T04:13:49.607Z,7.89
2023-04-06T04:18:48.528Z,8.07
2023-04-06T04:23:49.166Z,8.11
2023-04-06T04:28:46.452Z,8.16
2023-04-06T04:33:45.357Z,7.95
2023-04-06T04:38:53.797Z,8.10
2023-04-06T04:43:51.122Z,8.17
2023-04-06T04:48:54.204Z,8.25
2023-04-06T04:53:52.438Z,8.44
2023-04-06T04:58:57.115Z,7.92
2023-04-06T05:03:55.907Z,8.39
2023-04-06T05:08:53.962Z,8.14
2023-04-06T05:13:52.626Z,8.74
2023-04-06T05:18:53.793Z,8.67
2023-04-06T05:23:51.622Z,9.10
2023-04-06T05:28:49.639Z,9.22
2023-04-06T05:33:48.227Z,9.40
2023-04-06T05:38:48.671Z,9.06
2023-04-06T05:44:09.545Z,9.22
2023-04-06T05:49:07.200Z,9.84
2023-04-06T05:54:06.084Z,10.05
2023-04-06T05:59:03.915Z,10.25
2023-04-06T06:04:03.121Z,10.46
2023-04-06T06:09:03.816Z,10.74
2023-04-06T06:14:04.727Z,11.01
2023-04-06T06:19:06.678Z,11.29
2023-04-06T06:24:04.276Z,11.34
2023-04-06T06:29:01.406Z,11.17
2023-04-06T06:33:59.112Z,11.28
2023-04-06T06:38:57.362Z,11.16
2023-04-06T06:43:54.496Z,10.86
2023-04-06T06:48:56.330Z,11.52
2023-04-06T06:53:53.457Z,11.33
2023-04-06T06:58:54.257Z,11.76
2023-04-06T07:03:53.846Z,11.73
2023-04-06T07:08:51.349Z,12.12
2023-04-06T07:13:48.375Z,12.68
2023-04-06T07:18:46.478Z,13.50
2023-04-06T07:23:43.974Z,13.98
2023-04-06T07:28:40.920Z,14.38
2023-04-06T07:33:38.776Z,14.60
2023-04-06T07:38:36.951Z,14.58
2023-04-06T07:43:34.135Z,14.64
2023-04-06T07:48:31.192Z,15.08
2023-04-06T07:53:28.438Z,15.14
2023-04-06T07:58:26.475Z,15.74
2023-04-06T08:03:26.043Z,16.03
2023-04-06T08:08:24.192Z,16.34
2023-04-06T08:13:21.445Z,16.81
2023-04-06T08:18:19.118Z,16.31
2023-04-06T08:23:17.757Z,16.46
2023-04-06T08:28:15.488Z,16.56
2023-04-06T08:33:12.833Z,17.06
2023-04-06T08:38:10.870Z,18.38
2023-04-06T08:43:11.921Z,18.48
2023-04-06T08:48:10.130Z,17.79
2023-04-06T08:53:08.323Z,18.28
2023-04-06T08:58:08.202Z,19.18
2023-04-06T09:03:08.035Z,19.58
2023-04-06T09:08:05.891Z,20.20
2023-04-06T09:13:07.082Z,21.00
2023-04-06T09:18:04.345Z,21.56
2023-04-06T09:23:03.905Z,20.52
2023-04-06T09:28:03.423Z,20.03
2023-04-06T09:33:01.754Z,19.53
2023-04-06T09:37:58.753Z,19.04
2023-04-06T09:42:57.999Z,18.49
2023-04-06T09:47:56.846Z,17.97
2023-04-06T09:52:59.150Z,17.27
2023-04-06T09:58:02.191Z,17.31
2023-04-06T10:03:11.271Z,17.58
2023-04-06T10:08:11.134Z,17.71
2023-04-06T10:13:08.546Z,18.02
2023-04-06T10:18:07.890Z,18.17
2023-04-06T10:23:16.497Z,18.35
2023-04-06T10:28:20.701Z,18.64
2023-04-06T10:33:19.303Z,19.66
2023-04-06T10:38:21.556Z,20.13
2023-04-06T10:43:24.361Z,20.09
2023-04-06T10:48:21.523Z,20.55
2023-04-06T10:53:24.827Z,20.49
2023-04-06T10:58:29.318Z,20.03
2023-04-06T11:03:30.270Z,19.50
2023-04-06T11:08:29.752Z,18.91
2023-04-06T11:13:38.505Z,18.94
2023-04-06T11:18:35.856Z,18.73
2023-04-06T11:23:33.648Z,18.93
2023-04-06T11:28:30.992Z,18.54
2023-04-06T11:33:30.519Z,18.59
2023-04-06T11:38:33.239Z,18.64
2023-04-06T11:43:35.610Z,18.28
2023-04-06T11:48:32.856Z,18.39
2023-04-06T11:53:30.274Z,18.11
2023-04-06T11:58:27.773Z,17.72
2023-04-06T12:03:28.734Z,17.76
2023-04-06T12:08:26.429Z,17.33
2023-04-06T12:13:23.720Z,17.23
2023-04-06T12:18:21.458Z,16.44
2023-04-06T12:23:25.072Z,16.37
2023-04-06T12:28:23.713Z,16.06
2023-04-06T12:33:23.409Z,16.07
2023-04-06T12:38:21.921Z,15.63
2023-04-06T12:43:19.000Z,16.10
2023-04-06T12:48:16.517Z,15.86
2023-04-06T12:53:13.633Z,16.45
2023-04-06T12:58:17.866Z,16.16
2023-04-06T13:03:15.216Z,16.71
2023-04-06T13:08:12.357Z,16.52
2023-04-06T13:13:09.404Z,16.84
2023-04-06T13:18:08.962Z,16.51
2023-04-06T13:23:06.031Z,17.03
2023-04-06T13:28:03.514Z,16.96
2023-04-06T13:33:14.938Z,16.82
2023-04-06T13:38:13.441Z,16.43
2023-04-06T13:43:11.649Z,16.65
2023-04-06T13:48:08.593Z,16.71
2023-04-06T13:53:08.655Z,16.36
2023-04-06T13:58:06.494Z,16.40
2023-04-06T14:03:03.622Z,16.48
2023-04-06T14:08:03.027Z,15.98
2023-04-06T14:13:00.161Z,16.16
2023-04-06T14:18:05.246Z,15.98
2023-04-06T14:23:04.558Z,15.54
2023-04-06T14:28:02.302Z,15.81
2023-04-06T14:33:00.530Z,15.59
2023-04-06T14:38:00.473Z,15.80
2023-04-06T14:42:59.469Z,15.80
2023-04-06T14:47:56.537Z,15.70
2023-04-06T14:52:53.567Z,15.69
2023-04-06T14:57:59.311Z,15.29
2023-04-06T15:03:08.270Z,15.29
2023-04-06T15:08:06.079Z,15.67
2023-04-06T15:13:03.701Z,15.60
2023-04-06T15:18:02.682Z,15.15
2023-04-06T15:23:03.171Z,15.28
2023-04-06T15:28:01.757Z,15.13
2023-04-06T15:33:04.272Z,14.99
2023-04-06T15:38:08.683Z,14.81
2023-04-06T15:43:05.952Z,14.40
2023-04-06T15:48:09.375Z,14.53
2023-04-06T15:53:12.234Z,14.54
2023-04-06T15:58:09.155Z,14.48
2023-04-06T16:03:08.211Z,14.47
2023-04-06T16:08:08.071Z,14.12
2023-04-06T16:13:16.608Z,13.89
2023-04-06T16:18:15.413Z,13.97
2023-04-06T16:23:16.748Z,13.79
2023-04-06T16:28:13.733Z,13.41
2023-04-06T16:33:10.945Z,13.55
2023-04-06T16:38:10.721Z,13.24
2023-04-06T16:43:09.273Z,12.92
2023-04-06T16:48:06.333Z,13.01
2023-04-06T16:53:06.199Z,12.65
2023-04-06T16:58:09.814Z,12.66
2023-04-06T17:03:07.169Z,12.90
2023-04-06T17:08:04.434Z,12.61
2023-04-06T17:13:37.707Z,12.65
2023-04-06T17:18:34.642Z,12.19
2023-04-06T17:23:31.908Z,12.37
2023-04-06T17:28:31.016Z,12.28
2023-04-06T17:33:32.999Z,12.11
2023-04-06T17:38:31.137Z,11.69
2023-04-06T17:43:28.185Z,11.88
2023-04-06T17:48:34.874Z,11.76
2023-04-06T17:53:33.815Z,11.62
2023-04-06T17:58:31.079Z,11.55
2023-04-06T18:03:30.612Z,11.64
2023-04-06T18:08:35.771Z,11.45
2023-04-06T18:13:32.950Z,11.03
2023-04-06T18:18:29.926Z,10.93
2023-04-06T18:23:26.841Z,10.93
2023-04-06T18:28:24.860Z,11.08
2023-04-06T18:33:23.366Z,11.30
2023-04-06T18:38:21.015Z,11.20
2023-04-06T18:43:18.002Z,10.56
2023-04-06T18:48:25.542Z,10.54
2023-04-06T18:53:22.683Z,10.66
2023-04-06T18:58:26.387Z,10.92
2023-04-06T19:03:24.094Z,11.03
2023-04-06T19:08:23.095Z,10.50
2023-04-06T19:13:20.133Z,10.96
2023-04-06T19:18:19.110Z,10.54
2023-04-06T19:23:24.941Z,10.56
2023-04-06T19:28:22.070Z,10.17
2023-04-06T19:33:19.031Z,10.50
2023-04-06T19:38:17.205Z,10.12
2023-04-06T19:43:14.292Z,10.42
2023-04-06T19:48:11.548Z,10.18
2023-04-06T19:53:08.991Z,10.23
2023-04-06T19:58:06.956Z,10.34
2023-04-06T20:03:04.282Z,9.88
2023-04-06T20:08:01.500Z,9.47
2023-04-06T20:12:59.956Z,9.27
2023-04-06T20:18:12.497Z,9.52
2023-04-06T20:23:12.142Z,9.10
2023-04-06T20:28:09.868Z,9.65
2023-04-06T20:33:07.888Z,9.48
2023-04-06T20:38:04.978Z,9.55
2023-04-06T20:43:05.142Z,9.80
2023-04-06T20:48:02.520Z,9.74
2023-04-06T20:53:02.863Z,9.95
2023-04-06T20:57:59.931Z,9.85
2023-04-06T21:02:56.933Z,10.08
2023-04-06T21:07:53.860Z,10.19
2023-04-06T21:12:51.403Z,9.93
2023-04-06T21:17:48.376Z,10.26
2023-04-06T21:22:45.477Z,10.24
2023-04-06T21:27:43.955Z,10.23
2023-04-06T21:32:41.684Z,10.09
2023-04-06T21:37:40.333Z,10.12
2023-04-06T21:42:40.053Z,10.17
2023-04-06T21:47:39.379Z,10.16
2023-04-06T21:52:37.101Z,9.79
2023-04-06T21:57:34.082Z,10.00
2023-04-06T22:02:31.634Z,9.88
2023-04-06T22:07:28.767Z,10.24
2023-04-06T22:12:26.389Z,10.26
2023-04-06T22:17:23.387Z,10.11
2023-04-06T22:22:20.373Z,9.97
2023-04-06T22:27:19.723Z,10.19
2023-04-06T22:32:17.293Z,10.14
2023-04-06T22:37:14.215Z,10.09
2023-04-06T22:42:11.130Z,9.98
2023-04-06T22:47:08.033Z,9.84
2023-04-06T22:52:05.725Z,9.69
2023-04-06T22:57:02.588Z,9.52
2023-04-06T23:01:59.657Z,9.48
2023-04-06T23:07:02.781Z,9.05
2023-04-06T23:12:00.527Z,9.17
2023-04-06T23:16:57.780Z,9.17
2023-04-06T23:21:55.727Z,8.52
2023-04-06T23:26:52.554Z,9.10
2023-04-06T23:31:50.398Z,8.72
2023-04-06T23:36:47.508Z,8.75
2023-04-06T23:41:44.443Z,8.79
2023-04-06T23:46:41.448Z,8.63
2023-04-06T23:51:39.216Z,8.61
2023-04-06T23:56:36.438Z,8.54
